Time;durP1;ratioP1;P1;durP2;ratioP2;P2;SDS_P1;SDS_P2;PMS_P1;PMS_P2;Temp;Humidity;BMP_temperature;BMP_pressure;BME280_temperature;BME280_humidity;BME280_pressure;Samples;Min_cycle;Max_cycle;Signal;HPM_P1;HPM_P2
2023/09/26 00:01:42;;;;;;;;;;;20.50;46.00;;;;;;1568219;74;725;-68
2023/09/26 00:03:43;;;;;;;;;;;21.20;46.40;;;;;;1565804;74;788;-67
2023/09/26 00:05:46;;;;;;;;;;;20.50;46.00;;;;;;1568978;74;727;-68
2023/09/26 00:07:48;;;;;;;;;;;20.50;46.00;;;;;;1569816;74;1926;-69
2023/09/26 00:09:50;;;;;;;;;;;20.40;45.90;;;;;;1565841;74;1509;-68
2023/09/26 00:11:52;;;;;;;;;;;20.40;46.00;;;;;;1566676;74;685;-67
2023/09/26 00:13:54;;;;;;;;;;;20.40;45.90;;;;;;1569260;74;825;-67
2023/09/26 00:15:56;;;;;;;;;;;20.40;46.00;;;;;;1567298;74;724;-67
2023/09/26 00:17:58;;;;;;;;;;;20.50;46.00;;;;;;1568205;74;740;-69
2023/09/26 00:20:00;;;;;;;;;;;20.40;46.00;;;;;;1570005;74;1216;-67
2023/09/26 00:22:02;;;;;;;;;;;20.40;46.00;;;;;;1568199;74;660;-68
2023/09/26 00:24:04;;;;;;;;;;;20.40;46.00;;;;;;1566805;74;820;-67
2023/09/26 00:26:07;;;;;;;;;;;20.50;46.10;;;;;;1567864;74;1926;-68
2023/09/26 00:28:09;;;;;;;;;;;20.50;46.10;;;;;;1568741;74;1144;-67
2023/09/26 00:30:12;;;;;;;;;;;20.50;46.10;;;;;;1567150;74;807;-68
2023/09/26 00:32:15;;;;;;;;;;;20.40;46.10;;;;;;1566080;74;774;-67
2023/09/26 00:34:17;;;;;;;;;;;20.50;46.20;;;;;;1569439;74;748;-66
2023/09/26 00:36:19;;;;;;;;;;;20.40;46.20;;;;;;1567632;74;739;-65
2023/09/26 00:38:22;;;;;;;;;;;20.40;46.20;;;;;;1568658;74;1153;-67
2023/09/26 00:40:24;;;;;;;;;;;20.50;46.30;;;;;;1568591;74;790;-66
2023/09/26 00:42:27;;;;;;;;;;;20.50;46.30;;;;;;1568456;74;689;-67
2023/09/26 00:44:28;;;;;;;;;;;20.50;46.30;;;;;;1568609;74;678;-67
2023/09/26 00:46:30;;;;;;;;;;;20.50;46.40;;;;;;1566332;74;1918;-67
2023/09/26 00:48:33;;;;;;;;;;;20.50;46.40;;;;;;1556594;74;1128;-66
2023/09/26 00:50:36;;;;;;;;;;;20.50;46.50;;;;;;1564308;74;742;-68
2023/09/26 00:52:40;;;;;;;;;;;20.50;46.50;;;;;;1566064;74;782;-68
2023/09/26 00:54:42;;;;;;;;;;;20.50;46.60;;;;;;1566543;74;1873;-67
2023/09/26 00:56:45;;;;;;;;;;;20.50;46.60;;;;;;1568759;74;621;-67
2023/09/26 00:58:47;;;;;;;;;;;20.40;46.50;;;;;;1565855;74;1120;-66
2023/09/26 01:00:51;;;;;;;;;;;20.40;46.60;;;;;;1575049;74;702;-66
2023/09/26 01:02:53;;;;;;;;;;;20.50;46.80;;;;;;1565612;74;1014;-68
2023/09/26 01:04:55;;;;;;;;;;;20.50;46.80;;;;;;1569063;74;693;-68
2023/09/26 01:06:56;;;;;;;;;;;20.50;47.00;;;;;;1569786;74;1936;-69
2023/09/26 01:08:59;;;;;;;;;;;20.50;47.20;;;;;;1573752;74;1127;-68
2023/09/26 01:11:01;;;;;;;;;;;20.50;46.80;;;;;;1570255;74;736;-68
2023/09/26 01:13:03;;;;;;;;;;;20.50;47.00;;;;;;1563131;74;819;-66
2023/09/26 01:15:06;;;;;;;;;;;20.50;47.10;;;;;;1568631;74;816;-65
2023/09/26 01:17:07;;;;;;;;;;;20.50;47.10;;;;;;1569025;74;921;-67
2023/09/26 01:19:09;;;;;;;;;;;20.50;47.10;;;;;;1567761;74;1191;-68
2023/09/26 01:21:12;;;;;;;;;;;20.50;47.10;;;;;;1570112;74;746;-67
2023/09/26 01:23:14;;;;;;;;;;;20.50;47.30;;;;;;1564100;74;674;-67
2023/09/26 01:25:16;;;;;;;;;;;20.50;47.40;;;;;;1570458;74;828;-67
2023/09/26 01:27:18;;;;;;;;;;;20.50;47.30;;;;;;1568775;74;1910;-68
2023/09/26 01:29:20;;;;;;;;;;;20.50;47.40;;;;;;1565080;74;1144;-66
2023/09/26 01:31:22;;;;;;;;;;;20.40;47.50;;;;;;1566493;74;800;-67
2023/09/26 01:33:24;;;;;;;;;;;20.50;47.50;;;;;;1563488;74;724;-66
2023/09/26 01:35:26;;;;;;;;;;;20.50;47.50;;;;;;1567439;74;732;-67
2023/09/26 01:37:28;;;;;;;;;;;20.50;47.70;;;;;;1567541;74;715;-68
2023/09/26 01:39:30;;;;;;;;;;;20.50;47.60;;;;;;1568125;74;1233;-67
2023/09/26 01:41:32;;;;;;;;;;;20.50;47.70;;;;;;1569789;75;751;-67
2023/09/26 01:43:36;;;;;;;;;;;20.50;47.70;;;;;;1565139;74;799;-67
2023/09/26 01:45:38;;;;;;;;;;;20.40;47.60;;;;;;1570274;74;754;-68
2023/09/26 01:47:47;;;;;;;;;;;20.50;47.60;;;;;;1569418;74;1950;-67
2023/09/26 01:49:48;;;;;;;;;;;20.50;47.60;;;;;;1570336;74;1163;-67
2023/09/26 01:51:50;;;;;;;;;;;20.50;47.60;;;;;;1569329;74;784;-67
2023/09/26 01:53:52;;;;;;;;;;;20.50;47.60;;;;;;1569088;74;752;-68
2023/09/26 01:55:56;;;;;;;;;;;20.50;47.50;;;;;;1566498;74;729;-68
2023/09/26 01:57:58;;;;;;;;;;;20.50;47.60;;;;;;1567535;74;1901;-68
2023/09/26 02:00:10;;;;;;;;;;;20.40;47.50;;;;;;1569630;74;1153;-67
2023/09/26 02:02:06;;;;;;;;;;;20.40;47.40;;;;;;1561462;74;1660;-66
2023/09/26 02:04:08;;;;;;;;;;;20.50;47.50;;;;;;1566068;74;1570;-67
2023/09/26 02:06:10;;;;;;;;;;;20.40;47.40;;;;;;1564920;74;792;-67
2023/09/26 02:08:12;;;;;;;;;;;20.50;47.40;;;;;;1569625;74;1942;-67
2023/09/26 02:10:14;;;;;;;;;;;20.40;47.20;;;;;;1568747;74;704;-67
2023/09/26 02:12:16;;;;;;;;;;;20.40;47.30;;;;;;1563579;74;782;-65
2023/09/26 02:14:18;;;;;;;;;;;20.40;47.10;;;;;;1565445;74;734;-67
2023/09/26 02:16:21;;;;;;;;;;;20.40;47.20;;;;;;1570148;74;734;-66
2023/09/26 02:18:23;;;;;;;;;;;20.40;47.10;;;;;;1560505;74;1206;-65
2023/09/26 02:20:25;;;;;;;;;;;20.40;47.10;;;;;;1572346;74;792;-68
2023/09/26 02:22:27;;;;;;;;;;;20.40;47.10;;;;;;1567710;74;732;-67
2023/09/26 02:24:29;;;;;;;;;;;20.50;47.20;;;;;;1570257;74;739;-68
2023/09/26 02:26:31;;;;;;;;;;;20.40;47.00;;;;;;1565409;74;704;-66
2023/09/26 02:28:33;;;;;;;;;;;20.40;47.10;;;;;;1561840;74;1934;-68
2023/09/26 02:30:34;;;;;;;;;;;20.40;47.00;;;;;;1569681;74;859;-68
2023/09/26 02:32:36;;;;;;;;;;;20.40;46.90;;;;;;1565464;74;792;-66
2023/09/26 02:34:38;;;;;;;;;;;20.40;47.00;;;;;;1567952;74;755;-66
2023/09/26 02:36:40;;;;;;;;;;;20.40;47.00;;;;;;1572044;74;857;-67
2023/09/26 02:38:42;;;;;;;;;;;20.40;46.90;;;;;;1565232;74;1177;-64
2023/09/26 02:40:44;;;;;;;;;;;20.40;46.90;;;;;;1561135;74;798;-67
2023/09/26 02:42:46;;;;;;;;;;;20.40;46.80;;;;;;1568161;74;655;-67
2023/09/26 02:44:48;;;;;;;;;;;20.40;46.80;;;;;;1563407;74;796;-67
2023/09/26 02:46:50;;;;;;;;;;;20.40;46.80;;;;;;1568825;74;621;-66
2023/09/26 02:48:52;;;;;;;;;;;20.40;46.80;;;;;;1569512;74;1903;-67
2023/09/26 02:50:56;;;;;;;;;;;20.40;46.70;;;;;;1567185;74;719;-66
2023/09/26 02:52:58;;;;;;;;;;;20.40;46.80;;;;;;1561999;74;1872;-67
2023/09/26 02:55:01;;;;;;;;;;;20.40;46.70;;;;;;1569067;74;670;-66
2023/09/26 02:57:03;;;;;;;;;;;20.50;46.80;;;;;;1566573;74;685;-67
2023/09/26 02:59:04;;;;;;;;;;;20.40;46.70;;;;;;1570633;74;1628;-65
2023/09/26 03:01:06;;;;;;;;;;;20.40;46.60;;;;;;1564401;74;801;-68
2023/09/26 03:03:08;;;;;;;;;;;20.40;46.60;;;;;;1570919;74;816;-66
2023/09/26 03:05:10;;;;;;;;;;;20.40;46.50;;;;;;1565767;74;738;-67
2023/09/26 03:07:12;;;;;;;;;;;20.40;46.60;;;;;;1562652;74;1903;-67
2023/09/26 03:09:15;;;;;;;;;;;20.40;46.60;;;;;;1563802;74;1119;-65
2023/09/26 03:11:17;;;;;;;;;;;20.40;46.60;;;;;;1562354;74;729;-66
2023/09/26 03:13:19;;;;;;;;;;;20.30;46.60;;;;;;1567927;74;750;-65
2023/09/26 03:15:20;;;;;;;;;;;20.40;46.50;;;;;;1566672;74;807;-66
2023/09/26 03:17:22;;;;;;;;;;;20.40;46.50;;;;;;1568094;74;845;-67
2023/09/26 03:19:24;;;;;;;;;;;20.40;46.50;;;;;;1563667;74;1170;-67
2023/09/26 03:21:26;;;;;;;;;;;20.40;46.60;;;;;;1570492;74;692;-68
2023/09/26 03:23:28;;;;;;;;;;;20.40;46.60;;;;;;1563090;74;795;-68
2023/09/26 03:25:32;;;;;;;;;;;20.40;46.60;;;;;;1566320;74;789;-68
2023/09/26 03:27:34;;;;;;;;;;;20.40;46.60;;;;;;1562924;74;1911;-67
2023/09/26 03:29:36;;;;;;;;;;;20.30;46.60;;;;;;1568055;74;1109;-67
2023/09/26 03:31:41;;;;;;;;;;;20.40;46.70;;;;;;1567344;74;731;-67
2023/09/26 03:33:43;;;;;;;;;;;20.40;46.60;;;;;;1566544;74;639;-67
2023/09/26 03:35:45;;;;;;;;;;;20.40;46.70;;;;;;1568497;74;790;-68
2023/09/26 03:37:47;;;;;;;;;;;20.30;46.70;;;;;;1567252;74;730;-66
2023/09/26 03:39:49;;;;;;;;;;;20.40;46.80;;;;;;1567452;74;1075;-68
2023/09/26 03:41:51;;;;;;;;;;;20.40;46.80;;;;;;1574470;74;831;-65
2023/09/26 03:43:53;;;;;;;;;;;20.40;46.80;;;;;;1567793;74;747;-68
2023/09/26 03:45:55;;;;;;;;;;;20.40;46.80;;;;;;1566756;74;669;-67
2023/09/26 03:47:57;;;;;;;;;;;20.40;46.80;;;;;;1571656;74;1924;-67
2023/09/26 03:49:59;;;;;;;;;;;20.40;46.80;;;;;;1566367;74;1089;-67
2023/09/26 03:52:00;;;;;;;;;;;20.40;46.80;;;;;;1568037;74;772;-67
2023/09/26 03:54:02;;;;;;;;;;;20.40;46.90;;;;;;1569715;74;802;-66
2023/09/26 03:56:04;;;;;;;;;;;20.40;46.80;;;;;;1569123;74;1540;-67
2023/09/26 03:58:06;;;;;;;;;;;20.40;46.80;;;;;;1569099;74;1077;-68
2023/09/26 04:00:25;;;;;;;;;;;20.40;46.90;;;;;;1567917;74;760;-68
2023/09/26 04:02:18;;;;;;;;;;;20.40;46.90;;;;;;1566235;74;1646;-67
2023/09/26 04:04:20;;;;;;;;;;;20.40;46.90;;;;;;1567350;74;819;-67
2023/09/26 04:06:22;;;;;;;;;;;20.40;47.00;;;;;;1566980;74;836;-68
2023/09/26 04:08:24;;;;;;;;;;;20.40;47.00;;;;;;1569136;74;1936;-67
2023/09/26 04:10:26;;;;;;;;;;;20.40;46.90;;;;;;1565218;74;817;-67
2023/09/26 04:12:28;;;;;;;;;;;20.40;46.90;;;;;;1569215;74;765;-67
2023/09/26 04:14:31;;;;;;;;;;;20.40;47.00;;;;;;1565527;74;737;-68
2023/09/26 04:16:32;;;;;;;;;;;20.40;47.00;;;;;;1566724;74;752;-67
2023/09/26 04:18:34;;;;;;;;;;;20.40;47.00;;;;;;1565197;74;1140;-67
2023/09/26 04:20:36;;;;;;;;;;;20.40;47.00;;;;;;1566740;74;725;-67
2023/09/26 04:22:38;;;;;;;;;;;20.40;47.00;;;;;;1565948;74;730;-67
2023/09/26 04:24:40;;;;;;;;;;;20.40;47.00;;;;;;1567166;74;853;-67
2023/09/26 04:26:42;;;;;;;;;;;20.40;47.00;;;;;;1560898;74;723;-66
2023/09/26 04:28:45;;;;;;;;;;;20.40;47.00;;;;;;1558650;74;1938;-66
2023/09/26 04:30:46;;;;;;;;;;;20.40;47.00;;;;;;1567765;74;727;-65
2023/09/26 04:32:48;;;;;;;;;;;20.50;47.10;;;;;;1565566;74;767;-67
2023/09/26 04:34:50;;;;;;;;;;;20.40;47.00;;;;;;1566779;74;783;-67
2023/09/26 04:36:52;;;;;;;;;;;20.40;47.00;;;;;;1566486;74;778;-67
2023/09/26 04:38:54;;;;;;;;;;;20.40;47.10;;;;;;1565050;74;1148;-67
2023/09/26 04:40:56;;;;;;;;;;;20.40;47.10;;;;;;1558546;74;670;-67
2023/09/26 04:43:01;;;;;;;;;;;20.40;47.10;;;;;;1566059;74;729;-65
2023/09/26 04:45:03;;;;;;;;;;;20.40;47.10;;;;;;1568556;74;737;-66
2023/09/26 04:47:05;;;;;;;;;;;20.40;47.10;;;;;;1562115;74;677;-66
2023/09/26 04:49:07;;;;;;;;;;;20.40;47.10;;;;;;1569899;74;1942;-67
2023/09/26 04:51:13;;;;;;;;;;;20.30;47.10;;;;;;1568448;75;1439;-67
2023/09/26 04:53:15;;;;;;;;;;;20.30;47.10;;;;;;1569294;74;770;-68
2023/09/26 04:55:17;;;;;;;;;;;20.40;47.10;;;;;;1561858;74;849;-67
2023/09/26 04:57:19;;;;;;;;;;;20.40;47.10;;;;;;1567384;74;774;-66
2023/09/26 04:59:21;;;;;;;;;;;20.30;47.20;;;;;;1568632;74;1120;-66
2023/09/26 05:01:25;;;;;;;;;;;20.30;47.20;;;;;;1563598;74;603;-66
2023/09/26 05:03:26;;;;;;;;;;;20.40;47.20;;;;;;1563061;74;1650;-67
2023/09/26 05:05:28;;;;;;;;;;;20.40;47.20;;;;;;1569640;74;706;-67
2023/09/26 05:07:30;;;;;;;;;;;20.40;47.20;;;;;;1569732;74;799;-67
2023/09/26 05:09:32;;;;;;;;;;;20.30;47.20;;;;;;1567004;74;1910;-66
2023/09/26 05:11:34;;;;;;;;;;;20.40;47.20;;;;;;1562959;74;820;-67
2023/09/26 05:13:36;;;;;;;;;;;20.40;47.30;;;;;;1567672;74;808;-65
2023/09/26 05:15:38;;;;;;;;;;;20.40;47.20;;;;;;1562181;74;743;-67
2023/09/26 05:17:41;;;;;;;;;;;20.40;47.20;;;;;;1569493;74;867;-67
2023/09/26 05:19:43;;;;;;;;;;;20.30;47.20;;;;;;1567173;74;1106;-64
2023/09/26 05:21:45;;;;;;;;;;;21.10;47.70;;;;;;1563734;74;828;-66
2023/09/26 05:23:47;;;;;;;;;;;20.40;47.30;;;;;;1568187;74;915;-66
2023/09/26 05:25:48;;;;;;;;;;;20.30;47.30;;;;;;1568985;74;788;-67
2023/09/26 05:27:50;;;;;;;;;;;20.40;47.30;;;;;;1563126;74;687;-68
2023/09/26 05:29:52;;;;;;;;;;;20.40;47.30;;;;;;1566257;75;1926;-67
2023/09/26 05:31:54;;;;;;;;;;;20.40;47.30;;;;;;1564766;74;735;-67
2023/09/26 05:33:56;;;;;;;;;;;20.40;47.30;;;;;;1569724;74;672;-67
2023/09/26 05:35:58;;;;;;;;;;;20.30;47.30;;;;;;1564486;74;704;-67
2023/09/26 05:38:00;;;;;;;;;;;20.40;47.40;;;;;;1573278;74;727;-68
2023/09/26 05:40:06;;;;;;;;;;;20.40;47.40;;;;;;1569830;74;1150;-65
2023/09/26 05:42:08;;;;;;;;;;;20.30;47.40;;;;;;1566335;74;1675;-66
2023/09/26 05:44:11;;;;;;;;;;;20.40;47.50;;;;;;1563269;74;1602;-67
2023/09/26 05:46:13;;;;;;;;;;;20.50;47.60;;;;;;1568341;74;724;-65
2023/09/26 05:48:15;;;;;;;;;;;20.40;47.50;;;;;;1569700;74;1934;-66
2023/09/26 05:50:17;;;;;;;;;;;20.40;47.60;;;;;;1569672;74;789;-66
2023/09/26 05:52:20;;;;;;;;;;;20.40;47.60;;;;;;1565629;74;671;-66
2023/09/26 05:54:22;;;;;;;;;;;20.40;47.60;;;;;;1562515;74;891;-67
2023/09/26 05:56:24;;;;;;;;;;;20.40;47.60;;;;;;1563096;74;682;-67
2023/09/26 05:58:25;;;;;;;;;;;20.40;47.60;;;;;;1565921;74;1125;-67
2023/09/26 06:00:27;;;;;;;;;;;20.40;47.60;;;;;;1566976;74;586;-67
2023/09/26 06:02:29;;;;;;;;;;;20.30;47.70;;;;;;1567820;74;788;-64
2023/09/26 06:04:31;;;;;;;;;;;20.30;47.80;;;;;;1569265;74;809;-64
2023/09/26 06:06:33;;;;;;;;;;;20.30;47.80;;;;;;1568661;74;805;-67
2023/09/26 06:08:35;;;;;;;;;;;20.40;47.80;;;;;;1560284;74;1946;-67
2023/09/26 06:10:37;;;;;;;;;;;20.40;47.70;;;;;;1565773;74;774;-64
2023/09/26 06:12:39;;;;;;;;;;;20.40;47.70;;;;;;1567712;74;686;-67
2023/09/26 06:14:41;;;;;;;;;;;20.30;47.80;;;;;;1567239;74;747;-67
2023/09/26 06:16:43;;;;;;;;;;;20.40;47.80;;;;;;1559466;74;632;-66
2023/09/26 06:18:45;;;;;;;;;;;20.30;47.80;;;;;;1567425;74;1146;-67
2023/09/26 06:20:47;;;;;;;;;;;20.30;47.80;;;;;;1561969;74;819;-67
2023/09/26 06:22:49;;;;;;;;;;;20.40;47.80;;;;;;1568096;74;678;-66
2023/09/26 06:24:51;;;;;;;;;;;20.40;47.90;;;;;;1568683;74;735;-67
2023/09/26 06:26:53;;;;;;;;;;;20.40;47.90;;;;;;1568388;74;730;-67
2023/09/26 06:28:54;;;;;;;;;;;20.40;47.80;;;;;;1568254;74;1919;-67
2023/09/26 06:30:57;;;;;;;;;;;20.40;47.90;;;;;;1569770;74;830;-68
2023/09/26 06:32:59;;;;;;;;;;;20.40;47.90;;;;;;1568667;74;791;-66
2023/09/26 06:35:00;;;;;;;;;;;20.40;47.90;;;;;;1569328;74;825;-66
2023/09/26 06:37:03;;;;;;;;;;;20.40;47.90;;;;;;1566699;74;644;-67
2023/09/26 06:39:04;;;;;;;;;;;20.40;48.00;;;;;;1567610;74;1126;-67
2023/09/26 06:41:06;;;;;;;;;;;20.40;48.00;;;;;;1535901;76;742;-67
2023/09/26 06:43:08;;;;;;;;;;;20.50;48.10;;;;;;1504562;77;737;-68
2023/09/26 06:45:10;;;;;;;;;;;20.40;48.00;;;;;;1528078;76;1544;-67
2023/09/26 06:47:12;;;;;;;;;;;20.40;47.90;;;;;;1518840;78;761;-66
2023/09/26 06:49:14;;;;;;;;;;;20.40;48.00;;;;;;1505756;77;1957;-67
2023/09/26 06:51:16;;;;;;;;;;;20.50;48.10;;;;;;1519212;78;759;-67
2023/09/26 06:53:18;;;;;;;;;;;20.50;48.10;;;;;;1533329;76;732;-67
2023/09/26 06:55:20;;;;;;;;;;;20.40;48.10;;;;;;1533359;76;692;-67
2023/09/26 06:57:26;;;;;;;;;;;20.40;48.10;;;;;;1528327;76;1022;-67
2023/09/26 06:59:26;;;;;;;;;;;20.40;48.00;;;;;;1534748;76;1634;-68
2023/09/26 07:01:28;;;;;;;;;;;20.40;48.00;;;;;;1505062;77;731;-68
2023/09/26 07:03:32;;;;;;;;;;;20.40;48.00;;;;;;1516704;78;749;-67
2023/09/26 07:05:33;;;;;;;;;;;20.40;48.10;;;;;;1531602;76;1352;-67
2023/09/26 07:07:35;;;;;;;;;;;20.40;48.10;;;;;;1514993;78;717;-67
2023/09/26 07:09:38;;;;;;;;;;;20.40;48.10;;;;;;1502640;77;1929;-67
2023/09/26 07:11:40;;;;;;;;;;;20.40;48.10;;;;;;1504708;77;909;-68
2023/09/26 07:13:42;;;;;;;;;;;20.40;48.10;;;;;;1567966;74;775;-67
2023/09/26 07:15:44;;;;;;;;;;;20.40;48.10;;;;;;1564854;74;792;-65
2023/09/26 07:17:46;;;;;;;;;;;20.50;48.20;;;;;;1568135;74;730;-66
2023/09/26 07:19:52;;;;;;;;;;;20.40;48.20;;;;;;1564906;74;1129;-66
2023/09/26 07:21:51;;;;;;;;;;;20.40;48.30;;;;;;1565598;74;1155;-68
2023/09/26 07:23:54;;;;;;;;;;;20.40;48.20;;;;;;1575187;74;748;-68
2023/09/26 07:25:57;;;;;;;;;;;20.50;48.30;;;;;;1572791;74;758;-66
2023/09/26 07:27:59;;;;;;;;;;;20.40;48.20;;;;;;1568290;74;1657;-65
2023/09/26 07:30:01;;;;;;;;;;;20.50;48.30;;;;;;1564352;74;1943;-66
2023/09/26 07:32:03;;;;;;;;;;;20.50;48.20;;;;;;1569696;74;623;-67
2023/09/26 07:34:05;;;;;;;;;;;20.50;48.30;;;;;;1568445;74;712;-64
2023/09/26 07:36:07;;;;;;;;;;;20.50;48.30;;;;;;1566379;74;741;-67
2023/09/26 07:38:09;;;;;;;;;;;20.50;48.30;;;;;;1558830;74;1144;-65
2023/09/26 07:40:11;;;;;;;;;;;20.50;48.50;;;;;;1568830;74;1569;-67
2023/09/26 07:42:13;;;;;;;;;;;20.50;48.50;;;;;;1568548;74;667;-67
2023/09/26 07:44:15;;;;;;;;;;;21.00;48.60;;;;;;1565786;74;636;-68
2023/09/26 07:46:17;;;;;;;;;;;20.50;48.20;;;;;;1567333;74;565;-66
2023/09/26 07:48:19;;;;;;;;;;;20.50;48.10;;;;;;1569284;74;1156;-67
2023/09/26 07:50:21;;;;;;;;;;;20.60;48.10;;;;;;1567406;74;1939;-65
2023/09/26 07:52:26;;;;;;;;;;;20.50;48.10;;;;;;1534598;76;1187;-65
2023/09/26 07:54:26;;;;;;;;;;;20.50;48.10;;;;;;1562562;74;1656;-66
2023/09/26 07:56:28;;;;;;;;;;;20.60;48.30;;;;;;1566912;74;715;-67
2023/09/26 07:58:30;;;;;;;;;;;20.50;48.10;;;;;;1566869;74;1146;-67
2023/09/26 08:00:32;;;;;;;;;;;20.50;48.10;;;;;;1564781;74;591;-67
2023/09/26 08:02:34;;;;;;;;;;;20.60;48.20;;;;;;1566237;74;927;-68
2023/09/26 08:04:36;;;;;;;;;;;20.60;48.70;;;;;;1567865;74;723;-67
2023/09/26 08:06:38;;;;;;;;;;;20.60;48.50;;;;;;1569393;74;766;-65
2023/09/26 08:08:40;;;;;;;;;;;20.60;48.40;;;;;;1567839;74;1148;-66
2023/09/26 08:10:42;;;;;;;;;;;20.60;48.90;;;;;;1565050;74;1934;-66
2023/09/26 08:12:44;;;;;;;;;;;20.60;48.50;;;;;;1568348;74;748;-66
2023/09/26 08:14:45;;;;;;;;;;;20.60;48.50;;;;;;1567029;74;688;-67
2023/09/26 08:16:47;;;;;;;;;;;20.60;48.50;;;;;;1567495;74;823;-67
2023/09/26 08:18:50;;;;;;;;;;;20.60;48.50;;;;;;1568126;74;1144;-67
2023/09/26 08:20:55;;;;;;;;;;;20.60;48.60;;;;;;1566235;74;803;-67
2023/09/26 08:22:55;;;;;;;;;;;20.60;48.60;;;;;;1557840;74;1653;-67
2023/09/26 08:24:57;;;;;;;;;;;20.60;48.60;;;;;;1568933;74;705;-68
2023/09/26 08:26:59;;;;;;;;;;;20.60;48.60;;;;;;1566164;74;627;-67
2023/09/26 08:29:01;;;;;;;;;;;20.70;48.90;;;;;;1564936;74;1923;-66
2023/09/26 08:31:05;;;;;;;;;;;20.70;48.90;;;;;;1563110;74;666;-66
2023/09/26 08:33:07;;;;;;;;;;;20.70;48.90;;;;;;1564303;74;743;-67
2023/09/26 08:35:10;;;;;;;;;;;20.70;49.10;;;;;;1569593;74;724;-67
2023/09/26 08:37:13;;;;;;;;;;;20.70;49.10;;;;;;1567464;74;1537;-65
2023/09/26 08:39:15;;;;;;;;;;;20.70;49.10;;;;;;1566622;74;1176;-67
2023/09/26 08:41:17;;;;;;;;;;;20.70;49.20;;;;;;1561824;74;730;-67
2023/09/26 08:43:24;;;;;;;;;;;20.70;49.20;;;;;;1568791;74;681;-67
2023/09/26 08:45:25;;;;;;;;;;;20.70;49.30;;;;;;1560630;74;717;-67
2023/09/26 08:47:27;;;;;;;;;;;20.70;49.50;;;;;;1564455;74;870;-68
2023/09/26 08:49:29;;;;;;;;;;;20.70;49.50;;;;;;1569470;74;1946;-68
2023/09/26 08:51:31;;;;;;;;;;;20.70;49.50;;;;;;1567314;74;770;-66
2023/09/26 08:53:33;;;;;;;;;;;20.70;49.60;;;;;;1571305;74;737;-66
2023/09/26 08:55:35;;;;;;;;;;;20.70;49.70;;;;;;1567653;74;687;-68
2023/09/26 08:57:37;;;;;;;;;;;20.80;49.80;;;;;;1569514;74;840;-66
2023/09/26 08:59:39;;;;;;;;;;;20.70;49.90;;;;;;1565693;74;1125;-67
2023/09/26 09:01:41;;;;;;;;;;;20.70;50.10;;;;;;1567407;74;733;-66
2023/09/26 09:03:43;;;;;;;;;;;20.70;50.20;;;;;;1565636;74;665;-64
2023/09/26 09:05:45;;;;;;;;;;;20.80;50.20;;;;;;1568577;74;787;-67
2023/09/26 09:07:47;;;;;;;;;;;20.80;50.30;;;;;;1568770;74;738;-66
2023/09/26 09:10:12;;;;;;;;;;;20.80;50.40;;;;;;1565837;74;1932;-67
2023/09/26 09:12:11;;;;;;;;;;;20.70;50.50;;;;;;1566492;74;1697;-67
2023/09/26 09:14:13;;;;;;;;;;;20.70;50.70;;;;;;1555660;74;1903;-68
2023/09/26 09:16:16;;;;;;;;;;;20.80;50.80;;;;;;1571236;74;813;-68
2023/09/26 09:18:19;;;;;;;;;;;20.70;50.80;;;;;;1567049;74;1213;-67
2023/09/26 09:20:29;;;;;;;;;;;20.80;50.80;;;;;;1567327;74;1863;-66
2023/09/26 09:22:31;;;;;;;;;;;20.80;51.00;;;;;;1566548;74;805;-65
2023/09/26 09:24:35;;;;;;;;;;;20.80;51.00;;;;;;1572217;74;759;-67
2023/09/26 09:26:37;;;;;;;;;;;20.80;51.10;;;;;;1567703;74;2079;-67
2023/09/26 09:28:39;;;;;;;;;;;20.80;51.20;;;;;;1555997;74;1154;-67
2023/09/26 09:30:44;;;;;;;;;;;20.80;51.20;;;;;;1570422;74;1930;-69
2023/09/26 09:32:45;;;;;;;;;;;20.80;51.30;;;;;;1567840;74;1475;-67
2023/09/26 09:34:47;;;;;;;;;;;20.80;51.50;;;;;;1569897;74;603;-67
2023/09/26 09:36:50;;;;;;;;;;;20.90;51.80;;;;;;1570043;74;606;-67
2023/09/26 09:38:52;;;;;;;;;;;20.80;51.70;;;;;;1563895;74;1189;-67
2023/09/26 09:40:53;;;;;;;;;;;20.80;51.70;;;;;;1563708;74;812;-67
2023/09/26 09:42:55;;;;;;;;;;;20.80;51.90;;;;;;1566886;74;690;-67
2023/09/26 09:44:57;;;;;;;;;;;20.80;51.90;;;;;;1572581;74;773;-67
2023/09/26 09:47:01;;;;;;;;;;;20.90;52.20;;;;;;1566438;74;739;-67
2023/09/26 09:49:03;;;;;;;;;;;20.80;52.10;;;;;;1569170;74;1152;-65
2023/09/26 09:51:05;;;;;;;;;;;20.90;52.60;;;;;;1567787;74;1918;-67
2023/09/26 09:53:07;;;;;;;;;;;20.80;52.20;;;;;;1569452;74;742;-64
2023/09/26 09:55:10;;;;;;;;;;;20.90;52.40;;;;;;1573183;74;768;-67
2023/09/26 09:57:13;;;;;;;;;;;20.80;52.40;;;;;;1566550;74;871;-68
2023/09/26 09:59:16;;;;;;;;;;;20.90;52.40;;;;;;1567407;74;1126;-67
2023/09/26 10:01:22;;;;;;;;;;;20.90;52.50;;;;;;1565584;74;730;-68
2023/09/26 10:03:22;;;;;;;;;;;20.90;52.60;;;;;;1565413;74;1300;-66
2023/09/26 10:05:24;;;;;;;;;;;20.90;52.70;;;;;;1568021;74;761;-66
2023/09/26 10:07:26;;;;;;;;;;;20.80;52.80;;;;;;1560829;74;672;-67
2023/09/26 10:09:27;;;;;;;;;;;20.90;53.00;;;;;;1568264;74;1144;-67
2023/09/26 10:11:29;;;;;;;;;;;20.90;53.00;;;;;;1568524;74;1935;-67
2023/09/26 10:13:31;;;;;;;;;;;20.90;53.10;;;;;;1571400;74;715;-67
2023/09/26 10:15:35;;;;;;;;;;;20.90;53.20;;;;;;1567676;74;766;-66
2023/09/26 10:17:37;;;;;;;;;;;20.80;53.10;;;;;;1561986;74;1398;-66
2023/09/26 10:19:39;;;;;;;;;;;20.90;53.20;;;;;;1565984;74;1120;-67
2023/09/26 10:21:41;;;;;;;;;;;20.90;53.10;;;;;;1562942;74;783;-68
2023/09/26 10:23:43;;;;;;;;;;;20.90;53.00;;;;;;1565156;74;683;-67
2023/09/26 10:25:45;;;;;;;;;;;20.90;53.20;;;;;;1535680;76;808;-67
2023/09/26 10:27:47;;;;;;;;;;;20.90;53.20;;;;;;1567704;74;802;-66
2023/09/26 10:29:49;;;;;;;;;;;20.90;53.20;;;;;;1568628;74;1936;-66
2023/09/26 10:31:55;;;;;;;;;;;20.90;53.40;;;;;;1566886;74;795;-67
2023/09/26 10:33:57;;;;;;;;;;;20.90;53.50;;;;;;1572007;74;592;-67
2023/09/26 10:36:04;;;;;;;;;;;20.90;53.50;;;;;;1566304;74;790;-67
2023/09/26 10:38:18;;;;;;;;;;;20.90;53.80;;;;;;1565949;74;1132;-67
2023/09/26 10:40:19;;;;;;;;;;;21.00;53.60;;;;;;1569279;74;1650;-68
2023/09/26 10:42:23;;;;;;;;;;;20.90;53.70;;;;;;1567633;74;784;-67
2023/09/26 10:44:24;;;;;;;;;;;20.90;53.80;;;;;;1565385;74;724;-67
2023/09/26 10:46:26;;;;;;;;;;;20.90;54.00;;;;;;1568676;74;718;-67
2023/09/26 10:48:28;;;;;;;;;;;20.90;54.00;;;;;;1570240;74;1132;-67
2023/09/26 10:50:30;;;;;;;;;;;20.90;54.00;;;;;;1569075;74;1904;-67
2023/09/26 10:52:32;;;;;;;;;;;20.90;54.00;;;;;;1561757;74;739;-67
2023/09/26 10:54:35;;;;;;;;;;;20.90;54.20;;;;;;1573039;74;804;-67
2023/09/26 10:56:38;;;;;;;;;;;20.90;54.20;;;;;;1566239;74;724;-67
2023/09/26 10:58:44;;;;;;;;;;;20.90;54.20;;;;;;1566144;74;1156;-65
2023/09/26 11:00:50;;;;;;;;;;;20.90;54.20;;;;;;1569495;74;663;-66
2023/09/26 11:02:52;;;;;;;;;;;20.90;54.20;;;;;;1564581;74;672;-67
2023/09/26 11:04:53;;;;;;;;;;;20.90;54.40;;;;;;1538846;76;839;-68
2023/09/26 11:07:00;;;;;;;;;;;20.90;54.20;;;;;;1507462;77;788;-67
2023/09/26 11:08:59;;;;;;;;;;;20.90;54.50;;;;;;1521712;76;1336;-67
2023/09/26 11:11:01;;;;;;;;;;;20.90;54.50;;;;;;1505067;77;1960;-66
2023/09/26 11:13:03;;;;;;;;;;;20.90;54.50;;;;;;1497348;77;725;-66
2023/09/26 11:15:05;;;;;;;;;;;20.90;54.60;;;;;;1544165;76;775;-66
2023/09/26 11:17:09;;;;;;;;;;;21.00;54.70;;;;;;1510978;78;712;-66
2023/09/26 11:19:11;;;;;;;;;;;20.90;54.60;;;;;;1521086;78;1382;-67
2023/09/26 11:21:13;;;;;;;;;;;20.90;54.80;;;;;;1518137;77;728;-66
2023/09/26 11:23:23;;;;;;;;;;;20.90;54.60;;;;;;1522720;77;778;-68
2023/09/26 11:25:25;;;;;;;;;;;21.00;54.60;;;;;;1513663;78;1554;-66
2023/09/26 11:27:26;;;;;;;;;;;20.90;54.50;;;;;;1521072;76;664;-66
2023/09/26 11:29:28;;;;;;;;;;;20.90;54.60;;;;;;1519783;77;1140;-66
2023/09/26 11:31:30;;;;;;;;;;;20.90;54.50;;;;;;1514858;78;1922;-67
2023/09/26 11:33:32;;;;;;;;;;;20.90;54.60;;;;;;1523137;77;740;-68
2023/09/26 11:35:34;;;;;;;;;;;21.00;54.50;;;;;;1519789;78;719;-67
2023/09/26 11:37:39;;;;;;;;;;;20.90;54.60;;;;;;1492443;78;796;-67
2023/09/26 11:39:41;;;;;;;;;;;20.90;54.40;;;;;;1516405;77;1139;-67
2023/09/26 11:41:43;;;;;;;;;;;21.00;54.50;;;;;;1517784;77;791;-67
2023/09/26 11:43:47;;;;;;;;;;;21.00;54.70;;;;;;1521535;78;737;-67
2023/09/26 11:45:48;;;;;;;;;;;20.90;54.60;;;;;;1523408;78;1711;-67
2023/09/26 11:47:50;;;;;;;;;;;20.90;54.60;;;;;;1522301;76;698;-67
2023/09/26 11:49:52;;;;;;;;;;;20.90;54.60;;;;;;1523549;76;1151;-67
2023/09/26 11:51:54;;;;;;;;;;;20.90;54.70;;;;;;1497765;77;1929;-67
2023/09/26 11:53:56;;;;;;;;;;;20.90;54.40;;;;;;1542466;76;722;-68
2023/09/26 11:55:58;;;;;;;;;;;20.90;54.40;;;;;;1504437;77;742;-67
2023/09/26 11:58:00;;;;;;;;;;;21.00;54.60;;;;;;1537781;76;816;-67
2023/09/26 12:00:06;;;;;;;;;;;20.90;54.60;;;;;;1534431;76;1150;-66
2023/09/26 12:02:05;;;;;;;;;;;21.00;54.60;;;;;;1527141;76;1611;-67
2023/09/26 12:04:09;;;;;;;;;;;21.00;54.60;;;;;;1530845;76;665;-66
2023/09/26 12:06:11;;;;;;;;;;;20.90;54.40;;;;;;1533282;76;733;-68
2023/09/26 12:08:13;;;;;;;;;;;21.00;54.60;;;;;;1504446;77;1136;-67
2023/09/26 12:10:15;;;;;;;;;;;21.00;54.40;;;;;;1534473;76;773;-66